This is the latest recevied weather packets stored in our database for station/object IZ8QAD-12. If no packets are shown the sender has not sent any weather packets the latest 10 day(s).
| Time | Temp. | Humidity | Pressure | Rain* | Wind** | Luminosity | Snow |
|---|---|---|---|---|---|---|---|
| 1777519644 | 11.67° C | 59% | 969.3 hPa | - | - | - | - |
| 1777516936 | 12.22° C | 58% | 969 hPa | - | - | - | - |
| 1777514235 | 12.78° C | 56% | 968.9 hPa | - | - | - | - |
| 1777511536 | 12.22° C | 53% | 968.4 hPa | - | - | - | - |
| 1777508835 | 11.67° C | 50% | 968.5 hPa | - | - | - | - |
| 1777506136 | 12.22° C | 42% | 968.7 hPa | - | - | - | - |
| 1777503444 | 14.44° C | 33% | 968.7 hPa | - | - | - | - |
| 1777500735 | 14.44° C | 32% | 968.4 hPa | - | - | - | - |
| 1777498035 | 13.89° C | 34% | 968.2 hPa | - | - | - | - |
| 1777492634 | 15° C | 32% | 968.4 hPa | - | - | - | - |
| 1777489934 | 15.56° C | 30% | 968.2 hPa | - | - | - | - |
| 1777487234 | 17.22° C | 28% | 967.6 hPa | - | - | - | - |
| 1777484534 | 19.44° C | 26% | 967.1 hPa | - | - | - | - |
| 1777481834 | 20.56° C | 22% | 966.9 hPa | - | - | - | - |
| 1777479134 | 21.67° C | 21% | 966.8 hPa | - | - | - | - |
| 1777476442 | 22.78° C | 20% | 966.8 hPa | - | - | - | - |
| 1777473734 | 23.89° C | 20% | 966.9 hPa | - | - | - | - |
| 1777471034 | 27.22° C | 16% | 967.1 hPa | - | - | - | - |
| 1777468334 | 42.78° C | 5% | 967.2 hPa | - | - | - | - |
| 1777465634 | 52.78° C | 2% | 967.2 hPa | - | - | - | - |
| 1777462933 | 58.33° C | 1% | 967.4 hPa | - | - | - | - |
| 1777460233 | 58.33° C | 1% | 967.8 hPa | - | - | - | - |
| 1777454834 | 55.56° C | 4% | 968.5 hPa | - | - | - | - |
| 1777449433 | 42.22° C | 16% | 968.8 hPa | - | - | - | - |
| 1777446741 | 32.78° C | 25% | 968.8 hPa | - | - | - | - |
* Rain since midnight (hover to see other rain measurements)
** Current wind speed in m/s (hover to see current wind gust speed)